Time;durP1;ratioP1;P1;durP2;ratioP2;P2;SDS_P1;SDS_P2;PMS_P1;PMS_P2;Temp;Humidity;BMP_temperature;BMP_pressure;BME280_temperature;BME280_humidity;BME280_pressure;Samples;Min_cycle;Max_cycle;Signal;HPM_P1;HPM_P2
2023/02/04 00:01:32;;;;;;;27.27;5.18;;;9.80;92.00;;;;;;5049114;28;20036;-75
2023/02/04 00:03:57;;;;;;;34.42;6.50;;;9.80;92.00;;;;;;5048432;28;20984;-75
2023/02/04 00:06:23;;;;;;;30.52;6.53;;;9.80;92.00;;;;;;5048918;28;20115;-75
2023/02/04 00:08:49;;;;;;;28.80;5.18;;;9.80;92.00;;;;;;5049205;28;20013;-75
2023/02/04 00:11:14;;;;;;;26.92;4.90;;;9.80;92.00;;;;;;5049359;28;20513;-74
2023/02/04 00:13:40;;;;;;;26.27;4.82;;;9.70;92.10;;;;;;5048394;28;20171;-76
2023/02/04 00:16:06;;;;;;;28.67;4.63;;;9.70;92.10;;;;;;5046629;28;20017;-75
2023/02/04 00:18:31;;;;;;;32.17;5.35;;;9.70;92.10;;;;;;5071683;28;20040;-76
2023/02/04 00:20:58;;;;;;;21.52;4.78;;;9.70;92.10;;;;;;5048249;28;20018;-75
2023/02/04 00:23:27;;;;;;;21.58;5.00;;;9.70;92.10;;;;;;5048104;28;20479;-75
2023/02/04 00:25:55;;;;;;;22.88;5.18;;;9.70;92.20;;;;;;5035705;28;20049;-76
2023/02/04 00:28:21;;;;;;;36.95;6.85;;;9.70;92.20;;;;;;5040165;28;20025;-77
2023/02/04 00:30:47;;;;;;;27.65;4.43;;;9.70;92.20;;;;;;5050315;28;20039;-75
2023/02/04 00:33:13;;;;;;;31.73;6.63;;;9.70;92.20;;;;;;5049927;28;20055;-75
2023/02/04 00:35:39;;;;;;;23.17;4.63;;;9.70;92.30;;;;;;5052033;28;20448;-74
2023/02/04 00:38:05;;;;;;;35.10;5.38;;;9.60;92.30;;;;;;5049623;28;20041;-74
2023/02/04 00:40:31;;;;;;;27.75;6.70;;;9.70;92.30;;;;;;5040183;28;20056;-75
2023/02/04 00:42:57;;;;;;;30.17;5.07;;;9.60;92.20;;;;;;5050414;28;20061;-75
2023/02/04 00:45:23;;;;;;;27.08;5.22;;;9.60;92.30;;;;;;5050437;28;20048;-74
2023/02/04 00:47:49;;;;;;;20.17;4.20;;;9.60;92.30;;;;;;5051065;28;20025;-73
2023/02/04 00:50:16;;;;;;;27.80;6.22;;;9.60;92.30;;;;;;5049907;28;20025;-74
2023/02/04 00:52:41;;;;;;;35.65;5.85;;;9.60;92.30;;;;;;5034516;28;20027;-73
2023/02/04 00:55:09;;;;;;;32.28;5.05;;;9.60;92.30;;;;;;5050949;28;20025;-75
2023/02/04 00:57:35;;;;;;;34.95;5.80;;;9.60;92.30;;;;;;5050520;28;20139;-76
2023/02/04 01:00:01;;;;;;;32.30;5.20;;;9.60;92.30;;;;;;5049869;28;20021;-75
2023/02/04 01:02:26;;;;;;;23.10;4.30;;;9.60;92.50;;;;;;5051421;28;20478;-75
2023/02/04 01:04:52;;;;;;;26.92;4.38;;;9.60;92.60;;;;;;5051432;28;20025;-74
2023/02/04 01:07:17;;;;;;;31.67;7.70;;;9.60;92.60;;;;;;5052250;28;20487;-75
2023/02/04 01:09:43;;;;;;;24.70;5.65;;;9.50;92.60;;;;;;5051711;28;20032;-74
2023/02/04 01:12:09;;;;;;;31.50;5.47;;;9.50;92.60;;;;;;5048459;28;20028;-74
2023/02/04 01:14:34;;;;;;;26.10;5.38;;;9.50;92.60;;;;;;5052034;28;20075;-75
2023/02/04 01:17:01;;;;;;;30.10;5.63;;;9.50;92.70;;;;;;5049828;28;20505;-75
2023/02/04 01:19:27;;;;;;;29.15;5.22;;;9.50;92.70;;;;;;5063121;28;20391;-75
2023/02/04 01:21:52;;;;;;;17.20;3.80;;;9.50;92.70;;;;;;5050741;28;20025;-75
2023/02/04 01:24:18;;;;;;;25.73;3.95;;;9.50;92.70;;;;;;5051064;28;20033;-75
2023/02/04 01:26:43;;;;;;;30.08;4.72;;;9.40;92.70;;;;;;5051278;28;20033;-73
2023/02/04 01:29:10;;;;;;;25.27;4.22;;;9.40;92.80;;;;;;5050654;28;20151;-75
2023/02/04 01:31:36;;;;;;;22.80;4.45;;;9.40;92.80;;;;;;5050714;28;20166;-74
2023/02/04 01:34:02;;;;;;;27.63;5.55;;;9.30;92.90;;;;;;5033947;28;20029;-75
2023/02/04 01:36:27;;;;;;;28.65;4.60;;;9.30;92.90;;;;;;5049287;28;20021;-74
2023/02/04 01:38:53;;;;;;;32.42;5.22;;;9.30;93.00;;;;;;5049615;28;20037;-75
2023/02/04 01:41:19;;;;;;;33.40;5.20;;;9.30;93.10;;;;;;5050694;28;20144;-75
2023/02/04 01:43:46;;;;;;;26.13;5.25;;;9.20;93.10;;;;;;5050524;28;20059;-74
2023/02/04 01:46:12;;;;;;;30.38;5.93;;;9.20;93.20;;;;;;5051379;28;20025;-75
2023/02/04 01:48:38;;;;;;;31.88;4.53;;;9.20;93.20;;;;;;5050500;28;20066;-75
2023/02/04 01:51:10;;;;;;;24.13;5.00;;;9.20;93.30;;;;;;5049853;28;20417;-75
2023/02/04 01:53:36;;;;;;;31.92;5.38;;;9.20;93.50;;;;;;5050474;28;20025;-75
2023/02/04 01:56:15;;;;;;;29.77;4.63;;;9.20;93.40;;;;;;5046932;28;20029;-75
2023/02/04 01:58:41;;;;;;;30.65;5.35;;;9.20;93.40;;;;;;5048213;28;20041;-76
2023/02/04 02:01:12;;;;;;;28.60;5.88;;;9.20;93.40;;;;;;5050029;28;20067;-75
2023/02/04 02:03:38;;;;;;;32.35;6.75;;;9.20;93.40;;;;;;5047548;28;20021;-75
2023/02/04 02:06:06;;;;;;;25.77;5.13;;;9.20;93.40;;;;;;5048602;28;20024;-75
2023/02/04 02:08:31;;;;;;;25.88;4.07;;;9.20;93.40;;;;;;5050069;28;20016;-75
2023/02/04 02:10:57;;;;;;;35.72;5.90;;;9.20;93.40;;;;;;5048861;28;20017;-75
2023/02/04 02:13:23;;;;;;;31.90;6.53;;;9.20;93.50;;;;;;5049311;28;20112;-74
2023/02/04 02:15:48;;;;;;;20.33;5.30;;;9.10;93.50;;;;;;5049033;28;20025;-75
2023/02/04 02:18:14;;;;;;;32.35;5.95;;;9.10;93.50;;;;;;5051341;28;20091;-74
2023/02/04 02:20:42;;;;;;;24.48;5.07;;;9.10;93.60;;;;;;5048663;28;20075;-75
2023/02/04 02:23:46;;;;;;;30.80;5.57;;;9.10;93.60;;;;;;5048823;28;20386;-74
2023/02/04 02:26:14;;;;;;;24.63;4.43;;;9.10;93.70;;;;;;5033041;28;20050;-75
2023/02/04 02:28:39;;;;;;;20.88;4.40;;;9.00;93.60;;;;;;5050025;28;20021;-74
2023/02/04 02:31:05;;;;;;;22.92;4.68;;;9.00;93.70;;;;;;5049916;28;20036;-75
2023/02/04 02:33:31;;;;;;;23.60;4.38;;;9.00;93.80;;;;;;5049048;28;20032;-74
2023/02/04 02:35:57;;;;;;;23.48;4.47;;;8.90;93.90;;;;;;5033561;28;20021;-75
2023/02/04 02:38:22;;;;;;;20.50;5.03;;;8.90;93.90;;;;;;5046673;28;20033;-74
2023/02/04 02:40:48;;;;;;;19.77;4.97;;;8.90;93.90;;;;;;5049155;28;20017;-74
2023/02/04 02:43:20;;;;;;;27.27;4.32;;;8.90;93.90;;;;;;5048691;28;20037;-75
2023/02/04 02:45:47;;;;;;;27.90;5.28;;;8.80;93.90;;;;;;5049798;28;20052;-74
2023/02/04 02:48:12;;;;;;;25.42;4.88;;;8.80;93.90;;;;;;5050594;28;20037;-74
2023/02/04 02:50:39;;;;;;;21.67;4.32;;;8.80;93.90;;;;;;5049043;28;20013;-75
2023/02/04 02:53:10;;;;;;;28.92;5.18;;;8.80;93.90;;;;;;5049985;28;20040;-74
2023/02/04 02:55:36;;;;;;;22.88;4.72;;;8.70;93.90;;;;;;5045893;28;20024;-74
2023/02/04 02:58:02;;;;;;;23.88;4.55;;;8.70;93.90;;;;;;5037795;28;20037;-75
2023/02/04 03:00:29;;;;;;;25.58;4.07;;;8.70;94.00;;;;;;5043140;28;20079;-76
2023/02/04 03:03:07;;;;;;;29.10;5.35;;;8.60;94.10;;;;;;5050131;28;20025;-76
2023/02/04 03:05:39;;;;;;;30.60;4.60;;;8.60;94.30;;;;;;5038540;28;20032;-74
2023/02/04 03:08:06;;;;;;;28.88;5.55;;;8.50;94.30;;;;;;5049315;28;20021;-75
2023/02/04 03:10:32;;;;;;;22.90;4.47;;;8.50;94.40;;;;;;5049660;28;20025;-75
2023/02/04 03:12:58;;;;;;;23.40;3.88;;;8.50;94.40;;;;;;5049884;28;20382;-74
2023/02/04 03:15:24;;;;;;;24.65;4.28;;;8.50;94.30;;;;;;5048062;28;20496;-74
2023/02/04 03:17:55;;;;;;;32.28;4.47;;;8.50;94.30;;;;;;5051367;28;20041;-75
2023/02/04 03:20:25;;;;;;;31.08;4.90;;;8.40;94.50;;;;;;5046628;28;20037;-74
2023/02/04 03:22:51;;;;;;;;;;;8.40;94.30;;;;;;5042685;28;20029;-75
2023/02/04 03:25:16;;;;;;;27.63;6.38;;;8.40;94.30;;;;;;5046769;28;19908;-75
2023/02/04 03:27:42;;;;;;;26.55;4.47;;;8.40;94.30;;;;;;5042645;28;20132;-75
2023/02/04 03:30:08;;;;;;;23.55;4.05;;;8.30;94.40;;;;;;5046070;28;20047;-75
2023/02/04 03:32:34;;;;;;;22.15;4.20;;;8.30;94.50;;;;;;5037669;28;20691;-76
2023/02/04 03:35:00;;;;;;;26.23;5.28;;;8.20;94.60;;;;;;5039254;28;20044;-75
2023/02/04 03:37:25;;;;;;;30.85;5.03;;;8.20;94.70;;;;;;5045460;28;20037;-75
2023/02/04 03:39:51;;;;;;;21.00;4.97;;;8.20;94.80;;;;;;5044977;28;20051;-76
2023/02/04 03:42:18;;;;;;;22.30;4.75;;;8.20;94.90;;;;;;5045858;28;20024;-76
2023/02/04 03:44:43;;;;;;;26.33;4.90;;;8.20;95.30;;;;;;5046792;28;20119;-75
2023/02/04 03:47:09;;;;;;;31.30;4.72;;;8.10;95.20;;;;;;5045830;28;20109;-73
2023/02/04 03:49:35;;;;;;;27.30;5.65;;;8.10;95.30;;;;;;5047407;28;20033;-75
2023/02/04 03:52:03;;;;;;;27.08;5.55;;;8.10;95.40;;;;;;5048847;28;20390;-75
2023/02/04 03:54:28;;;;;;;26.85;5.13;;;8.10;95.40;;;;;;5049034;28;20033;-76
2023/02/04 03:56:54;;;;;;;23.27;4.25;;;8.10;95.50;;;;;;5048142;28;20112;-76
2023/02/04 03:59:19;;;;;;;28.90;5.10;;;8.00;95.60;;;;;;5048662;28;20047;-75
2023/02/04 04:01:45;;;;;;;28.67;5.15;;;8.00;95.50;;;;;;5039320;28;20021;-75
2023/02/04 04:04:11;;;;;;;25.25;5.00;;;8.00;95.60;;;;;;5051815;28;20021;-75
2023/02/04 04:06:36;;;;;;;33.65;5.72;;;8.00;95.70;;;;;;5051980;28;20033;-75
2023/02/04 04:09:03;;;;;;;27.95;4.80;;;7.90;95.80;;;;;;5052018;28;20033;-76
2023/02/04 04:11:29;;;;;;;26.88;5.30;;;7.90;95.60;;;;;;5047291;28;20479;-75
2023/02/04 04:13:55;;;;;;;35.20;5.82;;;7.90;95.70;;;;;;5051126;28;20047;-74
2023/02/04 04:16:21;;;;;;;31.13;6.35;;;7.90;95.80;;;;;;5051312;28;20038;-76
2023/02/04 04:18:47;;;;;;;37.85;6.97;;;7.90;95.80;;;;;;5051671;28;20049;-74
2023/02/04 04:21:12;;;;;;;23.90;4.38;;;7.90;95.90;;;;;;5049204;28;20090;-75
2023/02/04 04:23:38;;;;;;;35.72;6.65;;;7.80;96.00;;;;;;5052166;28;20032;-75
2023/02/04 04:26:04;;;;;;;32.47;6.40;;;7.80;96.20;;;;;;5043334;28;20474;-73
2023/02/04 04:28:29;;;;;;;33.03;5.75;;;7.80;96.30;;;;;;5049025;28;20030;-74
2023/02/04 04:30:55;;;;;;;34.10;6.22;;;7.80;96.30;;;;;;5038156;28;20475;-75
2023/02/04 04:33:21;;;;;;;33.92;5.50;;;7.80;96.50;;;;;;5050421;28;20036;-75
2023/02/04 04:35:46;;;;;;;32.55;5.60;;;7.70;96.80;;;;;;5051267;28;20057;-75
2023/02/04 04:38:12;;;;;;;26.58;5.82;;;7.70;96.90;;;;;;5051115;28;20556;-75
2023/02/04 04:40:37;;;;;;;35.75;6.07;;;7.70;96.90;;;;;;5035511;28;20025;-75
2023/02/04 04:43:03;;;;;;;31.92;5.20;;;7.70;96.80;;;;;;5051033;28;20830;-75
2023/02/04 04:45:29;;;;;;;45.17;7.82;;;7.70;96.90;;;;;;5051313;28;20051;-74
2023/02/04 04:47:54;;;;;;;34.15;5.95;;;7.70;97.00;;;;;;5051198;28;20138;-75
2023/02/04 04:50:20;;;;;;;29.60;5.20;;;7.70;96.90;;;;;;5050677;28;20056;-75
2023/02/04 04:52:46;;;;;;;32.80;6.13;;;7.70;96.80;;;;;;5051400;28;20032;-75
2023/02/04 04:55:12;;;;;;;35.42;7.10;;;7.70;96.80;;;;;;5049256;28;20025;-76
2023/02/04 04:57:38;;;;;;;25.23;5.97;;;7.70;96.90;;;;;;5050715;28;20037;-76
2023/02/04 05:00:06;;;;;;;35.80;6.90;;;7.70;96.90;;;;;;5044246;28;20104;-75
2023/02/04 05:02:33;;;;;;;36.38;7.78;;;7.80;96.90;;;;;;5058376;28;20413;-75
2023/02/04 05:04:59;;;;;;;28.45;6.25;;;7.70;96.90;;;;;;5051920;28;20082;-75
2023/02/04 05:07:25;;;;;;;32.65;6.75;;;7.80;97.00;;;;;;5050722;28;20538;-76
2023/02/04 05:09:50;;;;;;;30.60;6.47;;;7.80;97.10;;;;;;5050386;28;20051;-75
2023/02/04 05:12:17;;;;;;;30.00;5.53;;;7.80;97.10;;;;;;5036667;28;20024;-74
2023/02/04 05:14:43;;;;;;;35.92;7.18;;;7.80;97.10;;;;;;5050648;28;20103;-75
2023/02/04 05:17:08;;;;;;;30.25;5.90;;;7.90;97.20;;;;;;5051081;28;20120;-75
2023/02/04 05:19:34;;;;;;;38.92;5.85;;;7.90;97.20;;;;;;5048974;28;20068;-75
2023/02/04 05:22:00;;;;;;;46.38;8.82;;;7.90;97.30;;;;;;5049602;28;20032;-75
2023/02/04 05:24:26;;;;;;;41.28;7.05;;;7.90;97.30;;;;;;5051298;28;20024;-74
2023/02/04 05:26:52;;;;;;;32.30;6.10;;;8.00;97.50;;;;;;5050120;28;20503;-75
2023/02/04 05:29:18;;;;;;;38.03;6.95;;;8.00;97.80;;;;;;5049131;28;20036;-75
2023/02/04 05:31:43;;;;;;;39.42;6.28;;;8.00;97.60;;;;;;5038150;28;20084;-75
2023/02/04 05:34:09;;;;;;;32.97;6.53;;;8.00;97.70;;;;;;5046819;28;20585;-74
2023/02/04 05:36:35;;;;;;;25.73;6.40;;;8.10;97.80;;;;;;5039260;28;20025;-76
2023/02/04 05:39:00;;;;;;;39.03;6.78;;;8.10;97.80;;;;;;5043238;28;20047;-75
2023/02/04 05:41:26;;;;;;;32.17;5.53;;;8.10;97.80;;;;;;5050839;28;20029;-75
2023/02/04 05:43:51;;;;;;;39.70;7.25;;;8.20;97.80;;;;;;5050040;28;20020;-74
2023/02/04 05:46:17;;;;;;;29.17;5.65;;;8.20;97.80;;;;;;5049687;28;20032;-76
2023/02/04 05:48:43;;;;;;;38.20;5.70;;;8.20;97.80;;;;;;5042125;28;20044;-75
2023/02/04 05:51:08;;;;;;;31.42;6.22;;;8.10;97.70;;;;;;5042268;28;20022;-75
2023/02/04 05:53:34;;;;;;;38.05;6.47;;;8.10;97.80;;;;;;5034794;28;20074;-75
2023/02/04 05:56:00;;;;;;;34.45;5.78;;;8.20;97.90;;;;;;5042248;28;20025;-74
2023/02/04 05:58:32;;;;;;;27.83;5.63;;;8.20;97.80;;;;;;5036069;28;20068;-74
2023/02/04 06:01:00;;;;;;;38.47;7.13;;;8.20;97.80;;;;;;5045833;28;20534;-75
2023/02/04 06:03:27;;;;;;;38.83;7.22;;;8.20;97.70;;;;;;5047910;28;20029;-75
2023/02/04 06:05:53;;;;;;;39.78;8.63;;;8.30;97.80;;;;;;5046954;28;20020;-75
2023/02/04 06:08:19;;;;;;;30.30;6.55;;;8.20;97.70;;;;;;5046763;28;20403;-75
2023/02/04 06:10:44;;;;;;;43.45;6.57;;;8.20;97.70;;;;;;5047957;28;20052;-75
2023/02/04 06:13:10;;;;;;;36.63;6.93;;;8.30;97.70;;;;;;5047674;28;20475;-75
2023/02/04 06:15:36;;;;;;;31.83;6.95;;;8.30;97.60;;;;;;5048789;28;20483;-74
2023/02/04 06:18:01;;;;;;;26.13;5.65;;;8.30;97.60;;;;;;5049243;28;20177;-74
2023/02/04 06:20:27;;;;;;;43.17;7.75;;;8.30;97.60;;;;;;5046952;28;20032;-74
2023/02/04 06:22:53;;;;;;;29.65;6.35;;;8.30;97.60;;;;;;5048637;28;20036;-75
2023/02/04 06:25:19;;;;;;;29.08;6.80;;;8.30;97.60;;;;;;5047686;28;20013;-74
2023/02/04 06:27:45;;;;;;;41.70;7.65;;;8.30;97.60;;;;;;5047328;28;20042;-74
2023/02/04 06:30:12;;;;;;;41.47;6.75;;;8.30;97.60;;;;;;5049045;28;20025;-75
2023/02/04 06:32:37;;;;;;;38.85;6.13;;;8.30;97.60;;;;;;5046958;28;20109;-75
2023/02/04 06:35:03;;;;;;;38.00;6.72;;;8.30;97.60;;;;;;5045242;28;20039;-76
2023/02/04 06:37:29;;;;;;;32.10;7.07;;;8.30;97.70;;;;;;5047393;28;20171;-75
2023/02/04 06:39:56;;;;;;;32.25;5.63;;;8.30;97.70;;;;;;5046511;28;20775;-74
2023/02/04 06:42:22;;;;;;;28.25;5.72;;;8.30;97.70;;;;;;5045761;28;20471;-75
2023/02/04 06:44:48;;;;;;;33.13;6.82;;;8.30;97.70;;;;;;5047066;28;20017;-75
2023/02/04 06:47:13;;;;;;;24.45;5.60;;;8.30;97.80;;;;;;5045869;28;20033;-74
2023/02/04 06:49:39;;;;;;;31.10;6.65;;;8.20;97.70;;;;;;5048283;28;20032;-73
2023/02/04 06:52:05;;;;;;;27.08;5.15;;;8.30;97.80;;;;;;5048100;28;20028;-74
2023/02/04 06:54:30;;;;;;;31.60;6.53;;;8.30;97.70;;;;;;5048420;28;20783;-76
2023/02/04 06:57:02;;;;;;;30.85;5.18;;;8.30;97.70;;;;;;5047571;28;20021;-75
2023/02/04 06:59:31;;;;;;;29.30;6.45;;;8.40;97.70;;;;;;5045854;28;20021;-74
2023/02/04 07:01:56;;;;;;;29.23;5.43;;;8.30;97.60;;;;;;5043872;28;20485;-75
2023/02/04 07:04:22;;;;;;;34.20;4.82;;;8.30;97.60;;;;;;5048877;28;20033;-74
2023/02/04 07:06:47;;;;;;;21.13;4.63;;;8.40;98.10;;;;;;5048000;28;20056;-74
2023/02/04 07:09:13;;;;;;;21.92;4.40;;;8.70;99.50;;;;;;5046175;28;20152;-73
2023/02/04 07:11:39;;;;;;;27.55;5.82;;;9.30;99.90;;;;;;5047426;28;20545;-74
2023/02/04 07:14:04;;;;;;;28.77;5.32;;;9.80;99.90;;;;;;5048064;28;20102;-74
2023/02/04 07:16:30;;;;;;;21.85;4.90;;;10.10;99.90;;;;;;5046908;28;20028;-74
2023/02/04 07:18:56;;;;;;;16.25;4.95;;;10.40;99.90;;;;;;5049478;28;20044;-72
2023/02/04 07:21:22;;;;;;;20.92;4.32;;;10.70;99.90;;;;;;5045747;28;20025;-73
2023/02/04 07:23:47;;;;;;;16.52;4.50;;;10.90;99.90;;;;;;5047401;28;20040;-74
2023/02/04 07:26:13;;;;;;;23.90;4.80;;;11.10;99.90;;;;;;5045819;28;20049;-73
2023/02/04 07:28:40;;;;;;;24.45;5.45;;;11.20;99.90;;;;;;5045858;28;20070;-74
2023/02/04 07:31:05;;;;;;;32.10;5.00;;;11.40;99.60;;;;;;5041442;28;20025;-76
2023/02/04 07:33:31;;;;;;;21.85;5.18;;;11.60;99.90;;;;;;5045405;28;20033;-75
2023/02/04 07:35:57;;;;;;;27.10;4.88;;;11.70;99.70;;;;;;5048038;28;20519;-73
2023/02/04 07:38:23;;;;;;;20.23;4.57;;;11.80;99.70;;;;;;5064106;28;20037;-75
2023/02/04 07:40:48;;;;;;;19.73;4.35;;;11.90;99.50;;;;;;5041737;28;20032;-74
2023/02/04 07:43:14;;;;;;;21.33;4.97;;;12.00;99.40;;;;;;5041574;28;20091;-74
2023/02/04 07:45:39;;;;;;;19.77;4.57;;;12.00;99.00;;;;;;5047604;28;20029;-75
2023/02/04 07:48:05;;;;;;;16.60;3.85;;;12.10;98.50;;;;;;5047881;28;20170;-74
2023/02/04 07:50:31;;;;;;;16.17;4.30;;;12.10;98.10;;;;;;5043177;28;20055;-73
2023/02/04 07:52:56;;;;;;;19.30;5.05;;;12.20;97.90;;;;;;5043055;28;20021;-75
2023/02/04 07:55:22;;;;;;;16.27;3.60;;;12.30;97.40;;;;;;5043619;28;20021;-73
2023/02/04 07:57:47;;;;;;;13.75;3.30;;;12.40;96.90;;;;;;5037459;28;20033;-74
2023/02/04 08:00:14;;;;;;;18.35;4.65;;;12.40;96.80;;;;;;5045275;28;20418;-74
2023/02/04 08:02:40;;;;;;;19.67;4.43;;;12.50;96.70;;;;;;5043825;28;20124;-74
2023/02/04 08:05:07;;;;;;;19.45;4.50;;;12.50;96.00;;;;;;5046853;28;20969;-74
2023/02/04 08:07:32;;;;;;;23.23;4.10;;;12.60;95.80;;;;;;5045401;28;20033;-72
2023/02/04 08:09:58;;;;;;;16.85;4.30;;;12.60;95.30;;;;;;5043345;28;20040;-74
2023/02/04 08:12:24;;;;;;;20.48;5.32;;;12.60;95.30;;;;;;5045892;28;20037;-74
2023/02/04 08:14:49;;;;;;;17.83;3.95;;;12.70;95.10;;;;;;5046082;28;20021;-74
2023/02/04 08:17:15;;;;;;;20.40;5.18;;;12.70;95.30;;;;;;5046779;28;20041;-75
2023/02/04 08:19:40;;;;;;;17.23;5.30;;;12.80;95.20;;;;;;5044618;28;20029;-73
2023/02/04 08:22:06;;;;;;;19.98;4.82;;;12.90;94.80;;;;;;5046300;28;20048;-74
2023/02/04 08:24:32;;;;;;;17.33;3.50;;;13.00;94.70;;;;;;5040816;28;20036;-74
2023/02/04 08:26:58;;;;;;;23.85;4.75;;;13.00;94.70;;;;;;5044084;28;20049;-74
2023/02/04 08:29:24;;;;;;;22.02;5.60;;;13.10;94.60;;;;;;5041969;28;20040;-76
2023/02/04 08:31:50;;;;;;;18.77;4.85;;;13.10;94.00;;;;;;5046431;28;20021;-75
2023/02/04 08:34:16;;;;;;;23.33;4.63;;;13.10;93.90;;;;;;5043419;28;20036;-75
2023/02/04 08:36:43;;;;;;;22.83;4.95;;;13.20;93.90;;;;;;5047486;28;20032;-76
2023/02/04 08:39:09;;;;;;;26.50;5.57;;;13.20;93.90;;;;;;5040862;28;20061;-75
2023/02/04 08:41:48;;;;;;;24.85;5.40;;;13.20;93.80;;;;;;5037255;28;20040;-74
2023/02/04 08:44:14;;;;;;;25.67;5.18;;;13.20;93.60;;;;;;5040932;28;20090;-74
2023/02/04 08:49:48;;;;;;;21.90;4.50;;;13.30;93.00;;;;;;5046847;28;20379;-74
2023/02/04 08:52:13;;;;;;;26.13;5.60;;;13.20;92.70;;;;;;5051103;28;20040;-75
2023/02/04 08:54:40;;;;;;;27.38;6.28;;;13.20;92.40;;;;;;5050469;28;20021;-75
2023/02/04 08:57:08;;;;;;;24.92;8.68;;;13.20;92.40;;;;;;5041702;28;20053;-74
2023/02/04 08:59:34;;;;;;;23.10;7.05;;;13.20;92.40;;;;;;5050965;28;20076;-74
2023/02/04 09:02:01;;;;;;;22.95;5.68;;;13.30;92.20;;;;;;5050685;28;20448;-74
2023/02/04 09:04:28;;;;;;;22.77;5.53;;;13.30;92.40;;;;;;5048134;28;20025;-75
2023/02/04 09:06:54;;;;;;;18.08;5.43;;;13.40;92.60;;;;;;5046753;28;20133;-76
2023/02/04 09:09:20;;;;;;;23.95;6.30;;;13.50;92.80;;;;;;5041711;28;20033;-75
2023/02/04 09:11:46;;;;;;;21.33;6.30;;;13.50;92.10;;;;;;5050805;28;20032;-74
2023/02/04 09:14:12;;;;;;;21.75;6.60;;;13.70;92.20;;;;;;5050638;28;20021;-74
2023/02/04 09:16:37;;;;;;;22.38;5.50;;;13.90;92.20;;;;;;5050686;28;20028;-73
2023/02/04 09:19:04;;;;;;;37.67;14.82;;;14.00;91.60;;;;;;5050042;28;20084;-74
2023/02/04 09:21:30;;;;;;;24.25;8.05;;;14.10;90.80;;;;;;5050286;28;20033;-74
2023/02/04 09:23:56;;;;;;;32.33;6.30;;;14.00;91.40;;;;;;5049671;28;20025;-73
2023/02/04 09:26:22;;;;;;;25.67;6.80;;;14.10;91.50;;;;;;5049608;28;20075;-74
2023/02/04 09:28:48;;;;;;;22.85;5.22;;;14.30;91.60;;;;;;5045712;28;20104;-76
2023/02/04 09:31:14;;;;;;;21.35;6.47;;;14.20;90.70;;;;;;5044806;28;20460;-74
2023/02/04 09:33:40;;;;;;;47.13;8.13;;;14.20;91.20;;;;;;5049734;28;20025;-73
2023/02/04 09:36:07;;;;;;;34.05;5.97;;;14.10;91.20;;;;;;5046898;28;20784;-73
2023/02/04 09:38:33;;;;;;;20.10;5.32;;;14.20;91.10;;;;;;5049623;28;20117;-74
2023/02/04 09:41:05;;;;;;;32.10;6.38;;;14.20;91.30;;;;;;5049428;28;20104;-75
2023/02/04 09:43:34;;;;;;;31.23;5.22;;;14.10;91.20;;;;;;5048455;28;20417;-73
2023/02/04 09:46:01;;;;;;;28.30;5.28;;;14.20;91.50;;;;;;5047466;28;20025;-74
2023/02/04 09:48:26;;;;;;;25.70;5.68;;;14.40;91.90;;;;;;5048546;28;20033;-74
2023/02/04 09:51:03;;;;;;;26.80;5.43;;;14.60;91.60;;;;;;5048155;28;20028;-74
2023/02/04 09:53:29;;;;;;;28.45;5.50;;;15.00;91.40;;;;;;5044520;28;20051;-74
2023/02/04 09:55:55;;;;;;;24.17;5.63;;;15.30;90.70;;;;;;5037821;28;20036;-73
2023/02/04 09:58:22;;;;;;;27.73;4.88;;;15.60;88.90;;;;;;5048173;28;20029;-75
2023/02/04 10:01:15;;;;;;;23.92;4.57;;;16.00;89.70;;;;;;5049130;28;20537;-73
2023/02/04 10:03:45;;;;;;;19.92;4.47;;;16.10;88.40;;;;;;5046903;28;20037;-74
2023/02/04 10:06:13;;;;;;;20.15;4.70;;;16.10;87.30;;;;;;5047266;28;20143;-74
2023/02/04 10:08:39;;;;;;;15.40;4.07;;;15.90;87.00;;;;;;5045772;28;20033;-73
2023/02/04 10:11:08;;;;;;;19.75;4.22;;;15.80;87.50;;;;;;5046011;28;20017;-74
2023/02/04 10:13:37;;;;;;;14.05;4.18;;;15.60;88.10;;;;;;5048788;28;20190;-73
2023/02/04 10:16:12;;;;;;;26.25;5.28;;;15.60;88.50;;;;;;5045989;28;20028;-74
2023/02/04 10:18:38;;;;;;;21.73;4.60;;;15.60;87.20;;;;;;5053142;28;20083;-75
2023/02/04 10:21:20;;;;;;;16.15;3.88;;;15.40;86.50;;;;;;5045757;28;20052;-74
2023/02/04 10:23:52;;;;;;;20.02;4.97;;;15.30;88.50;;;;;;5044818;28;20108;-74
2023/02/04 10:26:20;;;;;;;20.40;4.85;;;15.30;87.90;;;;;;5042450;28;20088;-75
2023/02/04 10:28:46;;;;;;;19.75;4.28;;;15.30;87.50;;;;;;5042924;28;20032;-74
2023/02/04 10:31:36;;;;;;;16.55;3.33;;;15.30;88.30;;;;;;5049361;28;20024;-74
2023/02/04 10:34:26;;;;;;;17.52;4.45;;;15.40;89.30;;;;;;5048420;28;20449;-73
2023/02/04 10:36:56;;;;;;;14.60;3.67;;;15.50;88.80;;;;;;5041623;28;20075;-73
2023/02/04 10:39:24;;;;;;;14.15;2.83;;;15.70;88.70;;;;;;5042803;28;20033;-73
2023/02/04 10:41:52;;;;;;;13.65;3.92;;;15.70;88.30;;;;;;5047639;28;20025;-74
2023/02/04 10:44:27;;;;;;;18.95;3.65;;;15.60;88.70;;;;;;5048490;28;20021;-74
2023/02/04 10:47:00;;;;;;;14.90;3.30;;;15.50;89.20;;;;;;5047487;28;20052;-74
2023/02/04 10:49:26;;;;;;;13.95;3.17;;;15.50;89.30;;;;;;5048432;28;20383;-74
2023/02/04 10:51:52;;;;;;;15.18;4.03;;;15.50;89.40;;;;;;5048357;28;20013;-74
2023/02/04 10:54:30;;;;;;;16.35;3.75;;;15.50;89.30;;;;;;5048025;28;20402;-74
2023/02/04 10:57:22;;;;;;;15.57;4.32;;;15.50;89.60;;;;;;5048312;28;20075;-74
2023/02/04 10:59:50;;;;;;;15.85;2.88;;;15.60;88.80;;;;;;5048453;28;20116;-73
2023/02/04 11:02:31;;;;;;;27.13;5.43;;;15.80;88.70;;;;;;5048170;28;20029;-73
2023/02/04 11:04:57;;;;;;;16.83;4.18;;;16.00;87.60;;;;;;5042237;28;20049;-73
2023/02/04 11:07:22;;;;;;;13.02;3.50;;;16.00;86.10;;;;;;5048450;28;20470;-73
2023/02/04 11:09:48;;;;;;;12.80;2.65;;;15.90;86.20;;;;;;5049081;28;20463;-73
2023/02/04 11:12:38;;;;;;;10.60;2.72;;;15.70;85.60;;;;;;5046733;28;20048;-74
2023/02/04 11:15:05;;;;;;;13.65;2.85;;;15.50;87.10;;;;;;5045500;28;20386;-74
2023/02/04 11:17:32;;;;;;;11.52;3.17;;;15.40;87.20;;;;;;5048141;28;20052;-74
2023/02/04 11:19:59;;;;;;;17.70;3.28;;;15.40;87.90;;;;;;5042093;28;20112;-74
2023/02/04 11:22:52;;;;;;;15.23;2.63;;;15.30;86.40;;;;;;5048278;28;20029;-74
2023/02/04 11:25:34;;;;;;;17.10;3.88;;;15.30;86.50;;;;;;5048491;28;20033;-73
2023/02/04 11:28:12;;;;;;;20.40;4.45;;;15.30;87.10;;;;;;5048130;28;20056;-73
2023/02/04 11:30:38;;;;;;;17.65;3.70;;;15.40;82.90;;;;;;5040042;28;20100;-73
2023/02/04 11:33:20;;;;;;;15.02;3.50;;;15.30;84.50;;;;;;5047292;28;20562;-74
2023/02/04 11:36:03;;;;;;;12.70;3.90;;;15.50;85.40;;;;;;5048594;28;20013;-74
2023/02/04 11:38:31;;;;;;;12.95;2.92;;;15.80;85.70;;;;;;5044047;28;20044;-74
2023/02/04 11:40:58;;;;;;;8.35;3.25;;;16.10;85.80;;;;;;5048536;28;20111;-73
2023/02/04 11:43:25;;;;;;;11.32;2.75;;;16.20;86.10;;;;;;5047931;28;20017;-73
2023/02/04 11:46:12;;;;;;;6.93;2.53;;;16.30;86.80;;;;;;5048065;28;20106;-74
2023/02/04 11:48:38;;;;;;;10.60;2.50;;;16.40;86.90;;;;;;5048383;28;20422;-73
2023/02/04 11:51:15;;;;;;;12.90;2.88;;;16.40;87.40;;;;;;5047613;28;20038;-74
2023/02/04 11:53:42;;;;;;;10.43;3.05;;;16.40;88.90;;;;;;5048114;28;20036;-74
2023/02/04 11:56:20;;;;;;;9.93;2.53;;;16.40;89.40;;;;;;5047985;28;20045;-74
2023/02/04 11:58:47;;;;;;;13.45;3.10;;;16.60;89.90;;;;;;5046642;28;20037;-73
2023/02/04 12:01:24;;;;;;;13.48;3.10;;;16.80;90.60;;;;;;5041232;28;20104;-74
2023/02/04 12:03:56;;;;;;;19.55;4.10;;;16.80;91.00;;;;;;5048434;28;20025;-74
2023/02/04 12:06:23;;;;;;;15.05;3.03;;;16.80;90.10;;;;;;5048344;28;20029;-74
2023/02/04 12:08:49;;;;;;;12.90;4.10;;;16.80;88.60;;;;;;5044739;28;20112;-74
2023/02/04 12:11:29;;;;;;;8.57;2.60;;;16.90;89.70;;;;;;5036342;28;20099;-74
2023/02/04 12:13:56;;;;;;;13.60;3.30;;;17.00;90.40;;;;;;5043262;28;20072;-74
2023/02/04 12:16:23;;;;;;;12.43;2.58;;;17.20;90.90;;;;;;5042441;28;20071;-74
2023/02/04 12:18:50;;;;;;;10.18;2.60;;;17.20;90.40;;;;;;5041005;28;20041;-75
2023/02/04 12:21:18;;;;;;;12.27;3.38;;;17.10;91.00;;;;;;5039478;28;20087;-74
2023/02/04 12:23:43;;;;;;;15.60;2.70;;;16.90;91.80;;;;;;5050534;28;20036;-73
2023/02/04 12:26:10;;;;;;;13.48;2.65;;;16.80;92.40;;;;;;5050875;28;20049;-73
2023/02/04 12:28:35;;;;;;;17.13;3.17;;;16.60;92.90;;;;;;5051198;28;20078;-74
2023/02/04 12:31:01;;;;;;;12.00;3.38;;;16.50;93.10;;;;;;5049689;28;20021;-73
2023/02/04 12:33:27;;;;;;;20.05;3.90;;;16.50;93.20;;;;;;5051286;28;20029;-75
2023/02/04 12:35:53;;;;;;;16.83;3.22;;;16.60;93.40;;;;;;5051586;28;20024;-75
2023/02/04 12:38:19;;;;;;;14.32;3.72;;;16.80;93.30;;;;;;5049604;28;20140;-74
2023/02/04 12:40:44;;;;;;;15.82;3.30;;;17.00;93.40;;;;;;5049803;28;20044;-74
2023/02/04 12:43:10;;;;;;;19.80;4.65;;;17.00;93.50;;;;;;5048951;28;20037;-74
2023/02/04 12:45:37;;;;;;;26.17;5.32;;;16.80;94.00;;;;;;5051455;28;20024;-73
2023/02/04 12:48:03;;;;;;;24.73;4.32;;;16.60;94.50;;;;;;5051146;28;20021;-74